Time;durP1;ratioP1;P1;durP2;ratioP2;P2;SDS_P1;SDS_P2;PMS_P1;PMS_P2;Temp;Humidity;BMP_temperature;BMP_pressure;BME280_temperature;BME280_humidity;BME280_pressure;Samples;Min_cycle;Max_cycle;Signal;HPM_P1;HPM_P2
2022/01/17 00:01:14;;;;;;;29.90;16.33;;;;;;;;;;5159500;27;20234;-74
2022/01/17 00:03:42;;;;;;;27.40;14.57;;;;;;;;;;5159328;27;20479;-75
2022/01/17 00:06:10;;;;;;;28.70;15.40;;;;;;;;;;5159604;27;20540;-74
2022/01/17 00:08:42;;;;;;;32.77;16.30;;;;;;;;;;5159387;27;20445;-74
2022/01/17 00:11:11;;;;;;;35.20;16.53;;;;;;;;;;5159780;27;20477;-74
2022/01/17 00:13:40;;;;;;;37.10;16.50;;;;;;;;;;5159823;27;20452;-75
2022/01/17 00:16:11;;;;;;;32.43;16.27;;;;;;;;;;5159306;27;20467;-74
2022/01/17 00:21:26;;;;;;;27.15;14.43;;;;;;;;;;5107228;27;20252;-74
2022/01/17 00:23:54;;;;;;;32.13;16.47;;;;;;;;;;5142332;27;20204;-74
2022/01/17 00:26:22;;;;;;;35.27;16.73;;;;;;;;;;5142963;27;20553;-74
2022/01/17 00:28:50;;;;;;;34.47;17.23;;;;;;;;;;5142804;27;20438;-74
2022/01/17 00:31:18;;;;;;;38.50;17.90;;;;;;;;;;5142628;27;20227;-75
2022/01/17 00:33:47;;;;;;;34.17;17.10;;;;;;;;;;5142452;27;20469;-74
2022/01/17 00:36:15;;;;;;;31.20;16.83;;;;;;;;;;5142309;27;20307;-75
2022/01/17 00:38:43;;;;;;;31.97;16.37;;;;;;;;;;5142312;27;20834;-74
2022/01/17 00:41:11;;;;;;;29.27;15.23;;;;;;;;;;5142681;27;20452;-75
2022/01/17 00:43:43;;;;;;;31.93;15.40;;;;;;;;;;5142873;27;20449;-74
2022/01/17 00:46:11;;;;;;;34.30;17.13;;;;;;;;;;5140528;27;20450;-75
2022/01/17 00:48:39;;;;;;;27.73;14.30;;;;;;;;;;5144888;27;20548;-75
2022/01/17 00:51:09;;;;;;;28.27;15.25;;;;;;;;;;5142701;27;20200;-75
2022/01/17 00:53:37;;;;;;;28.37;13.67;;;;;;;;;;5141259;27;20655;-74
2022/01/17 00:56:05;;;;;;;31.23;14.18;;;;;;;;;;5140914;27;20461;-75
2022/01/17 00:58:33;;;;;;;30.37;13.87;;;;;;;;;;5141587;27;20202;-75
2022/01/17 01:01:02;;;;;;;24.93;14.83;;;;;;;;;;5141354;27;20441;-75
2022/01/17 01:03:30;;;;;;;26.93;13.63;;;;;;;;;;5140620;27;20430;-75
2022/01/17 01:05:58;;;;;;;27.65;13.98;;;;;;;;;;5142863;27;20460;-75
2022/01/17 01:08:28;;;;;;;25.90;14.00;;;;;;;;;;5143108;27;20259;-75
2022/01/17 01:10:56;;;;;;;26.35;14.30;;;;;;;;;;5145679;27;20448;-75
2022/01/17 01:13:24;;;;;;;30.15;14.98;;;;;;;;;;5162401;27;20220;-75
2022/01/17 01:16:22;;;;;;;26.80;14.45;;;;;;;;;;5162399;27;20219;-75
2022/01/17 01:19:07;;;;;;;26.40;14.10;;;;;;;;;;5155550;27;20229;-75
2022/01/17 01:21:58;;;;;;;21.80;11.33;;;;;;;;;;5141658;27;20813;-75
2022/01/17 01:30:00;;;;;;;27.23;13.10;;;;;;;;;;5139870;27;20464;-75
2022/01/17 01:32:35;;;;;;;28.43;15.20;;;;;;;;;;5140487;27;20512;-75
2022/01/17 01:35:09;;;;;;;27.20;14.02;;;;;;;;;;5156009;27;20441;-75
2022/01/17 01:37:37;;;;;;;24.08;13.60;;;;;;;;;;5160717;27;20220;-75
2022/01/17 01:40:07;;;;;;;26.88;13.13;;;;;;;;;;5162075;27;20204;-74
2022/01/17 01:42:35;;;;;;;23.90;12.93;;;;;;;;;;5162301;27;20210;-74
2022/01/17 01:45:07;;;;;;;29.37;14.73;;;;;;;;;;5150249;27;20200;-75
2022/01/17 01:47:35;;;;;;;25.67;13.07;;;;;;;;;;5141360;27;20498;-75
2022/01/17 01:50:04;;;;;;;22.30;13.60;;;;;;;;;;5140369;27;20473;-75
2022/01/17 01:52:32;;;;;;;27.40;13.83;;;;;;;;;;5139239;27;20482;-74
2022/01/17 01:55:00;;;;;;;25.37;12.90;;;;;;;;;;5139314;27;20444;-75
2022/01/17 01:57:29;;;;;;;26.35;12.82;;;;;;;;;;5137266;27;20464;-74
2022/01/17 01:59:57;;;;;;;23.88;12.63;;;;;;;;;;5137316;27;20208;-75
2022/01/17 02:02:25;;;;;;;24.53;12.73;;;;;;;;;;5137211;27;20613;-74
2022/01/17 02:04:54;;;;;;;22.70;13.13;;;;;;;;;;5137420;27;20452;-75
2022/01/17 02:07:22;;;;;;;25.67;13.02;;;;;;;;;;5139193;27;20466;-75
2022/01/17 02:09:50;;;;;;;22.67;13.02;;;;;;;;;;5139154;27;20210;-74
2022/01/17 02:12:21;;;;;;;25.05;13.23;;;;;;;;;;5139924;27;20230;-75
2022/01/17 02:14:53;;;;;;;21.60;12.17;;;;;;;;;;5140998;27;20208;-75
2022/01/17 02:17:23;;;;;;;25.13;13.70;;;;;;;;;;5141185;27;20470;-75
2022/01/17 02:19:53;;;;;;;21.23;11.63;;;;;;;;;;5135392;27;20454;-75
2022/01/17 02:22:21;;;;;;;21.97;10.57;;;;;;;;;;5140654;27;20446;-75
2022/01/17 02:24:50;;;;;;;20.30;10.73;;;;;;;;;;5140460;27;20520;-75
2022/01/17 02:27:18;;;;;;;24.23;11.27;;;;;;;;;;5140206;27;20468;-75
2022/01/17 02:29:46;;;;;;;17.80;10.53;;;;;;;;;;5149469;27;20439;-75
2022/01/17 02:32:14;;;;;;;20.03;10.90;;;;;;;;;;5161039;27;20489;-75
2022/01/17 02:34:42;;;;;;;18.83;11.10;;;;;;;;;;5160538;27;20443;-75
2022/01/17 02:37:12;;;;;;;21.50;12.33;;;;;;;;;;5160733;27;20845;-75
2022/01/17 02:39:40;;;;;;;21.17;10.67;;;;;;;;;;5160886;27;20451;-75
2022/01/17 02:42:08;;;;;;;20.87;10.63;;;;;;;;;;5160786;27;20497;-75
2022/01/17 02:44:44;;;;;;;22.83;11.00;;;;;;;;;;5152549;27;20444;-76
2022/01/17 02:47:12;;;;;;;23.30;11.87;;;;;;;;;;5139768;27;20452;-75
2022/01/17 02:49:40;;;;;;;24.87;12.53;;;;;;;;;;5139450;27;20474;-75
2022/01/17 02:52:08;;;;;;;25.43;12.93;;;;;;;;;;5140008;27;20457;-75
2022/01/17 02:54:38;;;;;;;21.17;12.90;;;;;;;;;;5140130;27;20441;-75
2022/01/17 02:57:07;;;;;;;25.93;13.37;;;;;;;;;;5139649;27;20480;-75
2022/01/17 02:59:35;;;;;;;21.97;12.43;;;;;;;;;;5139619;27;20430;-75
2022/01/17 03:02:05;;;;;;;27.23;12.70;;;;;;;;;;5139620;27;20442;-75
2022/01/17 03:04:33;;;;;;;24.17;12.10;;;;;;;;;;5139498;27;20442;-75
2022/01/17 03:07:01;;;;;;;21.53;12.37;;;;;;;;;;5139710;27;20461;-75
2022/01/17 03:09:36;;;;;;;25.23;12.50;;;;;;;;;;5139412;27;20452;-75
2022/01/17 03:12:06;;;;;;;22.92;12.45;;;;;;;;;;5140043;27;20439;-75
2022/01/17 03:14:34;;;;;;;27.33;13.10;;;;;;;;;;5139376;27;20662;-75
2022/01/17 03:17:02;;;;;;;24.53;13.90;;;;;;;;;;5139359;27;20903;-75
2022/01/17 03:19:30;;;;;;;26.87;13.63;;;;;;;;;;5139323;27;20456;-75
2022/01/17 03:21:58;;;;;;;23.53;12.73;;;;;;;;;;5139806;27;20434;-75
2022/01/17 03:24:26;;;;;;;28.10;13.80;;;;;;;;;;5139176;27;20831;-75
2022/01/17 03:26:54;;;;;;;28.27;14.73;;;;;;;;;;5139059;27;20458;-75
2022/01/17 03:29:23;;;;;;;25.27;12.33;;;;;;;;;;5140756;27;20453;-75
2022/01/17 03:31:51;;;;;;;24.40;13.27;;;;;;;;;;5160096;27;20443;-75
2022/01/17 03:34:19;;;;;;;26.40;12.43;;;;;;;;;;5159485;27;20480;-75
2022/01/17 03:36:47;;;;;;;23.37;11.97;;;;;;;;;;5159549;27;20844;-75
2022/01/17 03:39:15;;;;;;;22.97;13.40;;;;;;;;;;5159744;27;20449;-75
2022/01/17 03:41:43;;;;;;;25.10;13.03;;;;;;;;;;5159985;27;20441;-75
2022/01/17 03:44:11;;;;;;;24.77;13.40;;;;;;;;;;5153919;27;20438;-75
2022/01/17 03:46:41;;;;;;;27.83;13.90;;;;;;;;;;5139024;27;20457;-75
2022/01/17 03:49:09;;;;;;;22.67;12.03;;;;;;;;;;5138383;27;20470;-75
2022/01/17 03:51:37;;;;;;;25.37;13.57;;;;;;;;;;5139691;27;20463;-75
2022/01/17 03:54:06;;;;;;;30.70;14.87;;;;;;;;;;5140121;27;20492;-75
2022/01/17 03:56:34;;;;;;;25.53;13.50;;;;;;;;;;5140906;27;20468;-74
2022/01/17 03:59:02;;;;;;;25.07;13.90;;;;;;;;;;5138760;27;21023;-75
2022/01/17 04:01:30;;;;;;;30.90;14.70;;;;;;;;;;5138812;27;20446;-75
2022/01/17 04:04:00;;;;;;;24.77;13.13;;;;;;;;;;5138456;27;20442;-75
2022/01/17 04:06:28;;;;;;;22.60;12.20;;;;;;;;;;5138705;27;20465;-75
2022/01/17 04:08:56;;;;;;;25.13;12.97;;;;;;;;;;5138436;27;20517;-75
2022/01/17 04:11:24;;;;;;;26.97;13.30;;;;;;;;;;5138512;27;20442;-75
2022/01/17 04:13:52;;;;;;;23.33;12.20;;;;;;;;;;5138668;28;20568;-75
2022/01/17 04:16:20;;;;;;;26.63;12.90;;;;;;;;;;5138687;28;20462;-75
2022/01/17 04:18:48;;;;;;;25.50;13.97;;;;;;;;;;5138050;28;21768;-75
2022/01/17 04:21:17;;;;;;;24.60;13.10;;;;;;;;;;5138362;28;20446;-75
2022/01/17 04:23:45;;;;;;;29.03;13.23;;;;;;;;;;5139732;28;20441;-75
2022/01/17 04:26:14;;;;;;;22.53;13.23;;;;;;;;;;5138488;28;20468;-75
2022/01/17 04:28:42;;;;;;;25.73;14.37;;;;;;;;;;5138307;28;20945;-75
2022/01/17 04:31:10;;;;;;;26.03;13.93;;;;;;;;;;5138595;28;20436;-75
2022/01/17 04:33:38;;;;;;;33.50;15.67;;;;;;;;;;5138060;28;20480;-75
2022/01/17 04:36:06;;;;;;;28.50;14.23;;;;;;;;;;5138113;28;20469;-75
2022/01/17 04:38:36;;;;;;;28.43;14.50;;;;;;;;;;5138336;28;20456;-75
2022/01/17 04:41:12;;;;;;;27.50;13.07;;;;;;;;;;5138430;28;20452;-75
2022/01/17 04:45:07;;;;;;;23.97;12.93;;;;;;;;;;5138093;28;20442;-75
2022/01/17 04:46:45;;;;;;;31.83;12.90;;;;;;;;;;5124463;28;20845;-75
2022/01/17 04:49:13;;;;;;;27.95;13.52;;;;;;;;;;5137702;28;20236;-75
2022/01/17 04:51:41;;;;;;;25.50;12.77;;;;;;;;;;5138568;28;20215;-74
2022/01/17 04:54:34;;;;;;;19.60;11.60;;;;;;;;;;5138892;28;20488;-74
2022/01/17 04:57:02;;;;;;;22.10;11.63;;;;;;;;;;5138383;28;20216;-75
2022/01/17 04:59:30;;;;;;;23.27;12.80;;;;;;;;;;5138224;28;20452;-75
2022/01/17 05:01:59;;;;;;;25.05;12.95;;;;;;;;;;5137794;27;20439;-75
2022/01/17 05:04:28;;;;;;;30.30;13.10;;;;;;;;;;5135260;27;20224;-75
2022/01/17 05:06:56;;;;;;;24.00;13.07;;;;;;;;;;5138629;27;20232;-75
2022/01/17 05:09:25;;;;;;;24.43;12.73;;;;;;;;;;5140275;27;20196;-75
2022/01/17 05:11:53;;;;;;;23.87;12.20;;;;;;;;;;5140463;27;20857;-75
2022/01/17 05:14:21;;;;;;;23.70;11.93;;;;;;;;;;5142830;27;20473;-75
2022/01/17 05:16:54;;;;;;;25.07;12.53;;;;;;;;;;5140160;27;21039;-75
2022/01/17 05:22:07;;;;;;;29.93;14.00;;;;;;;;;;5139872;27;20445;-75
2022/01/17 05:24:37;;;;;;;23.47;12.93;;;;;;;;;;5142676;27;20426;-75
2022/01/17 05:27:05;;;;;;;25.77;13.50;;;;;;;;;;5138158;27;20484;-74
2022/01/17 05:29:33;;;;;;;24.50;13.80;;;;;;;;;;5140438;27;20444;-75
2022/01/17 05:32:01;;;;;;;22.87;12.73;;;;;;;;;;5141787;27;20440;-75
2022/01/17 05:34:29;;;;;;;20.67;12.10;;;;;;;;;;5142314;27;20476;-75
2022/01/17 05:36:57;;;;;;;26.50;13.70;;;;;;;;;;5141361;27;20445;-75
2022/01/17 05:39:25;;;;;;;23.60;12.60;;;;;;;;;;5140771;27;20279;-75
2022/01/17 05:41:54;;;;;;;25.13;13.13;;;;;;;;;;5140474;27;20440;-75
2022/01/17 05:44:22;;;;;;;20.97;12.87;;;;;;;;;;5140061;27;20430;-75
2022/01/17 05:46:50;;;;;;;22.13;12.23;;;;;;;;;;5142368;27;20453;-64
2022/01/17 05:49:18;;;;;;;26.57;14.23;;;;;;;;;;5139257;27;20971;-66
2022/01/17 05:51:46;;;;;;;23.90;13.80;;;;;;;;;;5141497;27;20873;-66
2022/01/17 05:54:15;;;;;;;18.43;11.63;;;;;;;;;;5130520;27;20486;-65
2022/01/17 05:56:43;;;;;;;16.67;11.10;;;;;;;;;;5132901;27;20460;-66
2022/01/17 05:59:13;;;;;;;19.20;11.03;;;;;;;;;;5131382;27;20443;-66
2022/01/17 06:01:42;;;;;;;18.70;12.33;;;;;;;;;;5131155;27;20444;-66
2022/01/17 06:04:11;;;;;;;18.30;11.83;;;;;;;;;;5140498;27;20445;-65
2022/01/17 06:06:39;;;;;;;21.33;11.43;;;;;;;;;;5140708;27;20461;-66
2022/01/17 06:09:06;;;;;;;18.90;11.07;;;;;;;;;;5155380;27;20437;-66
2022/01/17 06:11:34;;;;;;;20.20;11.60;;;;;;;;;;5157004;27;20438;-66
2022/01/17 06:14:04;;;;;;;17.67;11.10;;;;;;;;;;5140221;27;20450;-75
2022/01/17 06:16:33;;;;;;;20.97;11.33;;;;;;;;;;5140482;27;20462;-76
2022/01/17 06:19:05;;;;;;;20.23;11.87;;;;;;;;;;5140015;27;20921;-76
2022/01/17 06:21:33;;;;;;;20.20;12.30;;;;;;;;;;5139192;27;20438;-76
2022/01/17 06:24:02;;;;;;;20.77;12.13;;;;;;;;;;5145717;27;20452;-75
2022/01/17 06:26:30;;;;;;;19.13;11.77;;;;;;;;;;5135452;27;20881;-76
2022/01/17 06:28:58;;;;;;;19.97;10.93;;;;;;;;;;5132387;27;20492;-75
2022/01/17 06:31:30;;;;;;;18.93;10.80;;;;;;;;;;5131236;27;20459;-75
2022/01/17 06:33:59;;;;;;;20.17;11.70;;;;;;;;;;5131792;27;20438;-75
2022/01/17 06:36:27;;;;;;;20.00;12.33;;;;;;;;;;5130763;27;20969;-75
2022/01/17 06:38:55;;;;;;;17.53;10.57;;;;;;;;;;5139839;27;20453;-74
2022/01/17 06:41:23;;;;;;;17.57;10.67;;;;;;;;;;5153769;27;20452;-74
2022/01/17 06:43:51;;;;;;;16.77;9.97;;;;;;;;;;5139885;27;20449;-73
2022/01/17 06:46:20;;;;;;;15.67;10.13;;;;;;;;;;5154844;27;20453;-73
2022/01/17 06:48:48;;;;;;;18.73;11.43;;;;;;;;;;5148933;27;20473;-73
2022/01/17 06:51:17;;;;;;;16.37;10.70;;;;;;;;;;5139443;27;20481;-72
2022/01/17 06:53:45;;;;;;;26.63;12.07;;;;;;;;;;5139481;27;20978;-72
2022/01/17 06:56:13;;;;;;;26.30;13.00;;;;;;;;;;5139011;27;20482;-72
2022/01/17 06:58:42;;;;;;;27.23;14.57;;;;;;;;;;5139590;27;20796;-72
2022/01/17 07:01:10;;;;;;;30.50;16.43;;;;;;;;;;5139332;27;20453;-72
2022/01/17 07:03:39;;;;;;;31.03;15.97;;;;;;;;;;5138769;27;20449;-73
2022/01/17 07:06:06;;;;;;;31.47;14.77;;;;;;;;;;5139078;27;20553;-73
2022/01/17 07:08:36;;;;;;;30.63;15.43;;;;;;;;;;5150912;27;20441;-72
2022/01/17 07:11:04;;;;;;;33.50;16.27;;;;;;;;;;5159972;27;20449;-73
2022/01/17 07:13:32;;;;;;;34.17;15.10;;;;;;;;;;5160137;27;20443;-72
2022/01/17 07:16:00;;;;;;;37.60;19.03;;;;;;;;;;5153648;27;20980;-72
2022/01/17 07:18:28;;;;;;;32.73;18.33;;;;;;;;;;5138920;27;20453;-73
2022/01/17 07:20:56;;;;;;;35.43;18.93;;;;;;;;;;5139271;27;20441;-73
2022/01/17 07:23:24;;;;;;;43.03;18.70;;;;;;;;;;5139109;27;20450;-73
2022/01/17 07:25:54;;;;;;;38.33;18.47;;;;;;;;;;5138790;27;20462;-73
2022/01/17 07:28:27;;;;;;;34.33;17.77;;;;;;;;;;5139148;27;20484;-72
2022/01/17 07:30:56;;;;;;;31.47;17.40;;;;;;;;;;5133224;27;20447;-73
2022/01/17 07:33:26;;;;;;;31.83;16.13;;;;;;;;;;5130845;27;20438;-73
2022/01/17 07:35:54;;;;;;;36.50;17.20;;;;;;;;;;5138858;27;20557;-73
2022/01/17 07:38:22;;;;;;;34.60;16.07;;;;;;;;;;5138829;27;20438;-72
2022/01/17 07:40:50;;;;;;;34.10;18.47;;;;;;;;;;5138843;27;20528;-72
2022/01/17 07:43:19;;;;;;;32.40;16.13;;;;;;;;;;5138670;27;20446;-74
2022/01/17 07:46:02;;;;;;;36.73;17.70;;;;;;;;;;5146793;27;20448;-72
2022/01/17 07:51:27;;;;;;;32.03;16.57;;;;;;;;;;5095482;28;20444;-72
2022/01/17 07:53:56;;;;;;;32.60;15.60;;;;;;;;;;5144743;27;20447;-73
2022/01/17 07:56:25;;;;;;;27.40;14.47;;;;;;;;;;5146698;27;20503;-72
2022/01/17 07:58:54;;;;;;;29.73;15.47;;;;;;;;;;5159060;27;20936;-72
2022/01/17 08:01:22;;;;;;;32.23;15.07;;;;;;;;;;5159061;27;21000;-72
2022/01/17 08:03:50;;;;;;;31.63;14.30;;;;;;;;;;5159014;27;20501;-72
2022/01/17 08:06:18;;;;;;;35.93;16.63;;;;;;;;;;5159162;27;20457;-73
2022/01/17 08:08:47;;;;;;;32.87;15.30;;;;;;;;;;5145032;27;20517;-72
2022/01/17 08:11:15;;;;;;;29.23;13.80;;;;;;;;;;5138480;27;20444;-72
2022/01/17 08:13:43;;;;;;;29.77;14.27;;;;;;;;;;5138505;28;20925;-72
2022/01/17 08:16:14;;;;;;;35.80;16.83;;;;;;;;;;5134648;28;20488;-73
2022/01/17 08:18:43;;;;;;;36.70;15.93;;;;;;;;;;5138033;28;20453;-72
2022/01/17 08:21:11;;;;;;;32.97;15.07;;;;;;;;;;5138326;28;20515;-73
2022/01/17 08:23:39;;;;;;;31.73;15.77;;;;;;;;;;5138104;28;20438;-72
2022/01/17 08:26:07;;;;;;;26.17;14.13;;;;;;;;;;5138365;28;20462;-72
2022/01/17 08:28:35;;;;;;;30.03;14.53;;;;;;;;;;5138417;28;20445;-72
2022/01/17 08:31:03;;;;;;;24.87;14.07;;;;;;;;;;5138307;28;20450;-72
2022/01/17 08:33:52;;;;;;;28.57;14.77;;;;;;;;;;5126210;28;20514;-72
2022/01/17 08:36:20;;;;;;;28.63;14.83;;;;;;;;;;5137911;28;20488;-72
2022/01/17 08:38:48;;;;;;;31.80;16.33;;;;;;;;;;5137812;28;20448;-72
2022/01/17 08:41:19;;;;;;;26.33;14.93;;;;;;;;;;5138197;28;20455;-72
2022/01/17 08:43:47;;;;;;;37.07;18.17;;;;;;;;;;5139996;27;20525;-72
2022/01/17 08:46:15;;;;;;;42.27;18.37;;;;;;;;;;5141896;27;20493;-72
2022/01/17 08:48:43;;;;;;;37.50;16.17;;;;;;;;;;5141719;27;20556;-72
2022/01/17 08:51:13;;;;;;;39.47;17.53;;;;;;;;;;5141973;27;20545;-72
2022/01/17 08:53:41;;;;;;;33.33;16.40;;;;;;;;;;5141912;27;20444;-72
2022/01/17 08:56:09;;;;;;;37.47;17.77;;;;;;;;;;5141697;27;20855;-73
2022/01/17 08:58:37;;;;;;;34.23;16.47;;;;;;;;;;5141817;27;20442;-73
2022/01/17 09:01:05;;;;;;;39.87;17.17;;;;;;;;;;5142071;27;20442;-72
2022/01/17 09:03:33;;;;;;;39.30;18.50;;;;;;;;;;5141478;27;20460;-72
2022/01/17 09:06:01;;;;;;;37.57;19.10;;;;;;;;;;5141975;27;20828;-72
2022/01/17 09:08:30;;;;;;;38.57;17.03;;;;;;;;;;5141693;27;20999;-72
2022/01/17 09:10:58;;;;;;;35.13;18.07;;;;;;;;;;5141373;27;20464;-72
2022/01/17 09:13:27;;;;;;;37.50;17.27;;;;;;;;;;5141594;27;20545;-72
2022/01/17 09:15:55;;;;;;;36.33;17.50;;;;;;;;;;5141163;27;20484;-71
2022/01/17 09:18:24;;;;;;;42.53;18.17;;;;;;;;;;5141626;27;20473;-72
2022/01/17 09:20:52;;;;;;;36.67;17.87;;;;;;;;;;5149341;27;20441;-72
2022/01/17 09:23:21;;;;;;;35.57;16.63;;;;;;;;;;5150291;27;20502;-73
2022/01/17 09:25:51;;;;;;;36.23;16.13;;;;;;;;;;5147953;27;20437;-73
2022/01/17 09:28:19;;;;;;;38.47;16.30;;;;;;;;;;5134691;27;20487;-74
2022/01/17 09:30:47;;;;;;;34.23;16.87;;;;;;;;;;5141450;27;20441;-73
2022/01/17 09:33:15;;;;;;;34.40;17.13;;;;;;;;;;5151399;27;20445;-72
2022/01/17 09:35:43;;;;;;;34.83;16.97;;;;;;;;;;5141093;27;20947;-71
2022/01/17 09:38:11;;;;;;;35.53;16.27;;;;;;;;;;5141426;27;20430;-72
2022/01/17 09:40:39;;;;;;;31.00;16.23;;;;;;;;;;5141176;27;20932;-70
2022/01/17 09:43:29;;;;;;;27.17;15.00;;;;;;;;;;5130010;27;20452;-70
2022/01/17 09:45:57;;;;;;;33.50;14.40;;;;;;;;;;5134929;27;20465;-69
2022/01/17 09:48:34;;;;;;;34.57;16.80;;;;;;;;;;5140327;27;20532;-70
2022/01/17 09:51:14;;;;;;;28.37;14.67;;;;;;;;;;5139755;27;20521;-70
2022/01/17 09:53:43;;;;;;;29.90;15.23;;;;;;;;;;5140067;27;20530;-70
2022/01/17 09:56:12;;;;;;;29.83;14.20;;;;;;;;;;5137267;27;20942;-70
2022/01/17 09:58:41;;;;;;;30.53;15.97;;;;;;;;;;5140043;27;20438;-69
2022/01/17 10:01:10;;;;;;;30.97;16.77;;;;;;;;;;5135141;27;20979;-70
2022/01/17 10:03:40;;;;;;;27.60;14.87;;;;;;;;;;5139159;27;20993;-71
2022/01/17 10:06:08;;;;;;;35.60;16.17;;;;;;;;;;5139150;27;20470;-70
2022/01/17 10:08:36;;;;;;;29.90;15.10;;;;;;;;;;5140513;27;20437;-70
2022/01/17 10:11:13;;;;;;;29.50;15.40;;;;;;;;;;5140329;27;20803;-70
2022/01/17 10:13:45;;;;;;;30.50;15.43;;;;;;;;;;5140252;27;20453;-70
2022/01/17 10:16:14;;;;;;;32.33;15.43;;;;;;;;;;5139940;27;20553;-70
2022/01/17 10:18:45;;;;;;;33.60;16.07;;;;;;;;;;5140177;27;20442;-69
2022/01/17 10:21:17;;;;;;;33.03;18.17;;;;;;;;;;5140094;27;20521;-70
2022/01/17 10:27:08;;;;;;;34.40;16.37;;;;;;;;;;5132758;27;21073;-70
2022/01/17 10:35:20;;;;;;;30.70;15.90;;;;;;;;;;5128239;27;20846;-70
2022/01/17 10:37:59;;;;;;;34.37;15.67;;;;;;;;;;5121882;27;20536;-70
2022/01/17 10:40:27;;;;;;;34.83;17.10;;;;;;;;;;5124400;27;20438;-70
2022/01/17 10:42:55;;;;;;;30.40;15.27;;;;;;;;;;5121314;27;20462;-70
2022/01/17 10:45:28;;;;;;;36.13;17.67;;;;;;;;;;5120697;27;20439;-71
2022/01/17 10:47:58;;;;;;;39.60;16.63;;;;;;;;;;5143896;27;20518;-70
2022/01/17 10:50:27;;;;;;;31.30;15.50;;;;;;;;;;5150031;27;20468;-69
2022/01/17 10:52:56;;;;;;;34.37;14.77;;;;;;;;;;5146288;27;20449;-71
2022/01/17 10:55:25;;;;;;;34.93;15.90;;;;;;;;;;5143860;27;20466;-69
2022/01/17 10:57:54;;;;;;;30.73;15.73;;;;;;;;;;5139281;27;20496;-69
2022/01/17 11:00:23;;;;;;;39.97;18.87;;;;;;;;;;5147443;27;20441;-70
2022/01/17 11:02:54;;;;;;;35.97;14.90;;;;;;;;;;5139440;27;20446;-70
2022/01/17 11:05:23;;;;;;;32.53;14.07;;;;;;;;;;5139778;27;20484;-71
2022/01/17 11:07:52;;;;;;;31.27;15.57;;;;;;;;;;5147041;27;20484;-72
2022/01/17 11:10:21;;;;;;;39.17;16.77;;;;;;;;;;5146378;27;20805;-72
2022/01/17 11:12:50;;;;;;;29.80;14.67;;;;;;;;;;5147646;27;20441;-72
2022/01/17 11:15:20;;;;;;;32.07;14.47;;;;;;;;;;5143583;27;20517;-71
2022/01/17 11:17:53;;;;;;;35.67;15.57;;;;;;;;;;5146847;27;20857;-72
2022/01/17 11:20:23;;;;;;;32.53;13.20;;;;;;;;;;5144677;27;21012;-72
2022/01/17 11:22:52;;;;;;;33.07;16.20;;;;;;;;;;5144524;27;20929;-71
2022/01/17 11:25:21;;;;;;;28.80;13.27;;;;;;;;;;5147799;27;20521;-70
2022/01/17 11:27:49;;;;;;;35.20;15.43;;;;;;;;;;5139729;27;20537;-71
2022/01/17 11:30:17;;;;;;;30.40;13.93;;;;;;;;;;5150817;27;20509;-72
2022/01/17 11:32:46;;;;;;;29.67;15.33;;;;;;;;;;5159581;27;20524;-72
2022/01/17 11:35:16;;;;;;;36.53;14.80;;;;;;;;;;5159842;27;20437;-72
2022/01/17 11:37:47;;;;;;;36.70;15.23;;;;;;;;;;5159393;27;20491;-73
2022/01/17 11:40:16;;;;;;;32.87;17.20;;;;;;;;;;5153725;27;20437;-72
2022/01/17 11:42:44;;;;;;;33.50;15.93;;;;;;;;;;5145899;27;20471;-73
2022/01/17 11:45:33;;;;;;;32.13;15.63;;;;;;;;;;5151859;27;20444;-73
2022/01/17 11:48:01;;;;;;;29.70;13.83;;;;;;;;;;5138723;27;20437;-73
2022/01/17 11:50:43;;;;;;;31.60;15.33;;;;;;;;;;5138313;27;20481;-75
2022/01/17 11:53:30;;;;;;;30.30;14.97;;;;;;;;;;5138813;27;20529;-73
2022/01/17 11:55:59;;;;;;;32.40;14.60;;;;;;;;;;5143453;27;20557;-74
2022/01/17 11:58:29;;;;;;;29.73;15.87;;;;;;;;;;5138424;27;20489;-73
2022/01/17 12:01:09;;;;;;;26.80;13.43;;;;;;;;;;5138305;27;20933;-73
2022/01/17 12:03:40;;;;;;;29.10;14.53;;;;;;;;;;5138283;27;20460;-73
2022/01/17 12:06:19;;;;;;;24.10;12.57;;;;;;;;;;5138080;27;20557;-73
2022/01/17 12:08:47;;;;;;;27.20;13.23;;;;;;;;;;5138450;27;20962;-73
2022/01/17 12:11:30;;;;;;;30.77;15.47;;;;;;;;;;5138321;27;20448;-73
2022/01/17 12:14:19;;;;;;;31.00;16.23;;;;;;;;;;5138521;27;20441;-73
2022/01/17 12:16:47;;;;;;;31.70;14.20;;;;;;;;;;5138140;28;20492;-73
2022/01/17 12:19:15;;;;;;;28.17;14.00;;;;;;;;;;5137082;27;20486;-73
2022/01/17 12:21:44;;;;;;;28.47;12.90;;;;;;;;;;5138492;28;20444;-73
2022/01/17 12:24:47;;;;;;;31.17;14.60;;;;;;;;;;5138144;28;20514;-73
2022/01/17 12:27:20;;;;;;;28.33;13.50;;;;;;;;;;5138248;28;20472;-73
2022/01/17 12:29:53;;;;;;;24.93;11.90;;;;;;;;;;5144684;27;20520;-73
2022/01/17 12:32:22;;;;;;;30.17;13.50;;;;;;;;;;5137949;28;20525;-73
2022/01/17 12:34:51;;;;;;;23.60;11.90;;;;;;;;;;5138429;28;20446;-74
2022/01/17 12:37:30;;;;;;;27.63;13.20;;;;;;;;;;5138326;28;20549;-73
2022/01/17 12:40:08;;;;;;;25.03;13.23;;;;;;;;;;5138345;28;20442;-74
2022/01/17 12:42:49;;;;;;;23.40;12.57;;;;;;;;;;5138641;28;20524;-73
2022/01/17 12:45:21;;;;;;;24.33;12.03;;;;;;;;;;5138426;28;20475;-73
2022/01/17 12:47:50;;;;;;;22.93;13.97;;;;;;;;;;5137535;28;20456;-73
2022/01/17 12:50:18;;;;;;;21.17;11.03;;;;;;;;;;5137703;28;20480;-73
2022/01/17 12:52:47;;;;;;;29.40;14.10;;;;;;;;;;5138389;28;20453;-73
2022/01/17 12:55:15;;;;;;;23.77;11.90;;;;;;;;;;5138265;28;20513;-73
2022/01/17 12:57:44;;;;;;;30.90;13.27;;;;;;;;;;5137803;28;20457;-73
2022/01/17 13:00:18;;;;;;;22.90;12.17;;;;;;;;;;5138007;28;20442;-73
2022/01/17 13:02:48;;;;;;;29.77;13.53;;;;;;;;;;5137459;28;20936;-74
2022/01/17 13:05:21;;;;;;;27.17;12.90;;;;;;;;;;5138086;28;20473;-74
2022/01/17 13:07:49;;;;;;;24.97;13.47;;;;;;;;;;5137794;28;20470;-73
2022/01/17 13:10:17;;;;;;;27.00;13.50;;;;;;;;;;5138131;28;20438;-74
2022/01/17 13:12:46;;;;;;;23.33;13.17;;;;;;;;;;5144414;27;20542;-73
2022/01/17 13:15:13;;;;;;;24.03;12.53;;;;;;;;;;5158902;27;20443;-73
2022/01/17 13:17:43;;;;;;;24.10;12.33;;;;;;;;;;5158446;27;20533;-74
2022/01/17 13:20:11;;;;;;;25.17;11.13;;;;;;;;;;5140391;27;20536;-74
2022/01/17 13:22:52;;;;;;;19.47;10.20;;;;;;;;;;5138444;28;20453;-74
2022/01/17 13:25:21;;;;;;;23.00;10.77;;;;;;;;;;5138275;28;20506;-74
2022/01/17 13:27:52;;;;;;;18.57;10.23;;;;;;;;;;5138131;28;20465;-74
2022/01/17 13:30:20;;;;;;;22.30;11.10;;;;;;;;;;5140094;27;20475;-74
2022/01/17 13:33:10;;;;;;;16.53;9.30;;;;;;;;;;5141035;27;20438;-74
2022/01/17 13:35:43;;;;;;;16.63;9.67;;;;;;;;;;5141797;27;20524;-74
2022/01/17 13:38:18;;;;;;;15.67;9.13;;;;;;;;;;5141210;27;20487;-74
2022/01/17 13:40:46;;;;;;;17.40;9.50;;;;;;;;;;5141506;27;20443;-74
2022/01/17 13:43:15;;;;;;;15.37;9.33;;;;;;;;;;5141317;27;20430;-74
2022/01/17 13:45:44;;;;;;;18.90;10.37;;;;;;;;;;5141347;27;20442;-74
2022/01/17 13:48:14;;;;;;;17.33;9.43;;;;;;;;;;5140623;27;20460;-74
2022/01/17 13:50:47;;;;;;;20.90;9.30;;;;;;;;;;5141284;27;20442;-74
2022/01/17 13:53:20;;;;;;;17.10;10.40;;;;;;;;;;5141190;27;20445;-74
2022/01/17 13:55:49;;;;;;;20.10;9.83;;;;;;;;;;5141114;27;20503;-74
2022/01/17 13:58:18;;;;;;;23.37;11.90;;;;;;;;;;5140816;27;20488;-74
2022/01/17 14:00:46;;;;;;;21.73;11.70;;;;;;;;;;5140794;27;20442;-74
2022/01/17 14:03:17;;;;;;;19.83;10.23;;;;;;;;;;5140823;27;20452;-74
2022/01/17 14:05:47;;;;;;;24.23;10.90;;;;;;;;;;5140629;27;20936;-75
2022/01/17 14:08:19;;;;;;;19.40;10.87;;;;;;;;;;5140949;27;20444;-74
2022/01/17 14:10:51;;;;;;;21.83;11.33;;;;;;;;;;5140744;27;20476;-74
2022/01/17 14:13:20;;;;;;;21.20;10.83;;;;;;;;;;5152185;27;20920;-74
2022/01/17 14:15:49;;;;;;;27.83;11.60;;;;;;;;;;5161349;27;20437;-74
2022/01/17 14:18:19;;;;;;;22.50;11.50;;;;;;;;;;5159008;27;20437;-74
2022/01/17 14:20:54;;;;;;;22.77;12.03;;;;;;;;;;5140919;27;20484;-74
2022/01/17 14:23:26;;;;;;;21.87;11.00;;;;;;;;;;5140388;27;20928;-74
2022/01/17 14:25:54;;;;;;;19.60;10.23;;;;;;;;;;5140633;27;20465;-74
2022/01/17 14:28:25;;;;;;;16.00;9.90;;;;;;;;;;5140667;27;20441;-74
2022/01/17 14:30:53;;;;;;;19.47;9.77;;;;;;;;;;5137083;27;20831;-74
2022/01/17 14:33:23;;;;;;;16.93;9.53;;;;;;;;;;5139046;27;20449;-74
2022/01/17 14:36:04;;;;;;;15.53;8.33;;;;;;;;;;5140046;27;20587;-74
2022/01/17 14:38:32;;;;;;;17.73;8.90;;;;;;;;;;5140258;27;20449;-74
2022/01/17 14:41:00;;;;;;;18.87;8.10;;;;;;;;;;5139215;27;20784;-74
2022/01/17 14:43:31;;;;;;;11.73;7.53;;;;;;;;;;5140320;27;20442;-74
2022/01/17 14:46:03;;;;;;;14.17;8.53;;;;;;;;;;5139929;27;20479;-74
2022/01/17 14:48:36;;;;;;;15.47;8.10;;;;;;;;;;5139757;27;21024;-74
2022/01/17 14:51:11;;;;;;;17.80;8.27;;;;;;;;;;5140024;27;20893;-74
2022/01/17 14:53:39;;;;;;;12.70;7.60;;;;;;;;;;5140075;27;20449;-74
2022/01/17 15:01:44;;;;;;;18.50;8.37;;;;;;;;;;5139661;27;20452;-74
2022/01/17 15:04:15;;;;;;;14.83;8.07;;;;;;;;;;5139244;27;20446;-74